createdAt,value
2023-05-22T00:03:10.755Z,2.80
2023-05-22T00:08:12.759Z,2.90
2023-05-22T00:13:14.938Z,3.43
2023-05-22T00:18:16.978Z,3.00
2023-05-22T00:23:19.037Z,3.10
2023-05-22T00:28:21.278Z,3.40
2023-05-22T00:33:23.138Z,3.60
2023-05-22T00:38:30.987Z,3.03
2023-05-22T00:43:34.014Z,3.07
2023-05-22T00:48:36.178Z,2.60
2023-05-22T00:53:38.083Z,2.77
2023-05-22T00:58:40.004Z,2.73
2023-05-22T01:03:44.930Z,3.20
2023-05-22T01:08:47.333Z,3.50
2023-05-22T01:14:01.313Z,3.10
2023-05-22T01:19:09.349Z,3.00
2023-05-22T01:24:16.116Z,3.20
2023-05-22T01:29:29.981Z,2.80
2023-05-22T01:34:34.241Z,2.97
2023-05-22T01:39:37.313Z,2.67
2023-05-22T01:44:39.176Z,3.10
2023-05-22T01:49:42.119Z,3.27
2023-05-22T01:54:53.775Z,3.80
2023-05-22T02:00:04.263Z,3.00
2023-05-22T02:05:19.580Z,2.77
2023-05-22T02:10:22.749Z,3.40
2023-05-22T02:15:24.693Z,3.50
2023-05-22T02:20:26.606Z,3.17
2023-05-22T02:25:28.491Z,3.27
2023-05-22T02:30:30.575Z,3.10
2023-05-22T02:35:33.011Z,3.07
2023-05-22T02:40:34.903Z,2.93
2023-05-22T02:45:36.946Z,3.57
2023-05-22T02:50:39.096Z,3.50
2023-05-22T02:55:44.138Z,2.83
2023-05-22T03:00:46.106Z,3.50
2023-05-22T03:05:48.102Z,3.83
2023-05-22T03:10:50.535Z,4.00
2023-05-22T03:15:52.681Z,3.40
2023-05-22T03:20:55.868Z,3.57
2023-05-22T03:25:57.893Z,3.43
2023-05-22T03:31:03.515Z,3.60
2023-05-22T03:36:13.404Z,3.40
2023-05-22T03:41:15.538Z,3.43
2023-05-22T03:46:17.698Z,3.77
2023-05-22T03:51:20.565Z,3.70
2023-05-22T03:56:22.525Z,3.40
2023-05-22T04:01:24.428Z,3.83
2023-05-22T04:06:26.728Z,3.80
2023-05-22T04:11:30.408Z,3.63
2023-05-22T04:16:33.768Z,3.73
2023-05-22T04:21:36.083Z,3.70
2023-05-22T04:26:39.944Z,3.67
2023-05-22T04:31:43.520Z,3.97
2023-05-22T04:36:47.955Z,4.57
2023-05-22T04:41:50.557Z,4.37
2023-05-22T04:46:53.735Z,4.20
2023-05-22T04:51:57.491Z,4.10
2023-05-22T04:56:59.581Z,3.73
2023-05-22T05:02:01.653Z,3.50
2023-05-22T05:07:05.042Z,3.67
2023-05-22T05:12:07.582Z,3.90
2023-05-22T05:17:10.624Z,4.47
2023-05-22T05:22:12.568Z,3.90
2023-05-22T05:27:15.294Z,3.90
2023-05-22T05:32:17.480Z,5.10
2023-05-22T05:37:26.847Z,4.50
2023-05-22T05:42:32.376Z,4.23
2023-05-22T05:47:36.032Z,4.03
2023-05-22T05:52:38.389Z,4.63
2023-05-22T05:57:46.354Z,4.13
2023-05-22T06:02:55.139Z,5.17
2023-05-22T06:08:19.861Z,4.60
2023-05-22T06:13:22.150Z,4.10
2023-05-22T06:18:25.581Z,4.27
2023-05-22T06:23:28.472Z,4.40
2023-05-22T06:28:31.652Z,4.10
2023-05-22T06:33:37.699Z,4.70
2023-05-22T06:38:41.310Z,3.77
2023-05-22T06:43:53.563Z,3.57
2023-05-22T06:49:02.539Z,4.17
2023-05-22T06:54:12.558Z,3.70
2023-05-22T06:59:16.546Z,4.77
2023-05-22T07:04:44.175Z,4.30
2023-05-22T07:09:50.770Z,5.07
2023-05-22T07:14:53.494Z,4.83
2023-05-22T07:19:58.229Z,4.27
2023-05-22T07:25:01.225Z,4.80
2023-05-22T07:30:08.100Z,3.93
2023-05-22T07:35:11.989Z,4.60
2023-05-22T07:40:14.988Z,3.70
2023-05-22T07:45:17.014Z,3.67
2023-05-22T07:50:19.314Z,4.27
2023-05-22T07:55:21.924Z,2.70
2023-05-22T08:00:25.610Z,3.20
2023-05-22T08:05:27.583Z,3.00
2023-05-22T08:10:37.206Z,3.27
2023-05-22T08:15:48.843Z,3.57
2023-05-22T08:20:54.370Z,3.23
2023-05-22T08:25:57.836Z,2.90
2023-05-22T08:30:59.776Z,2.80
2023-05-22T08:36:01.744Z,3.10
2023-05-22T08:41:04.912Z,3.30
2023-05-22T08:46:09.108Z,2.90
2023-05-22T08:51:15.113Z,3.03
2023-05-22T08:56:17.914Z,3.07
2023-05-22T09:01:21.400Z,2.97
2023-05-22T09:06:23.361Z,3.57
2023-05-22T09:11:26.207Z,3.33
2023-05-22T09:16:28.197Z,3.07
2023-05-22T09:21:30.844Z,2.70
2023-05-22T09:26:33.642Z,3.37
2023-05-22T09:31:45.031Z,3.27
2023-05-22T09:37:03.546Z,3.80
2023-05-22T09:42:10.157Z,3.40
2023-05-22T09:47:12.140Z,3.27
2023-05-22T09:52:15.216Z,2.80
2023-05-22T09:57:19.623Z,3.10
2023-05-22T10:02:23.551Z,3.10
2023-05-22T10:07:32.703Z,3.60
2023-05-22T10:12:41.518Z,3.20
2023-05-22T10:17:44.912Z,3.53
2023-05-22T10:22:50.974Z,3.50
2023-05-22T10:27:54.773Z,2.93
2023-05-22T10:33:12.324Z,3.20
2023-05-22T10:38:40.559Z,3.10
2023-05-22T10:43:43.173Z,2.83
2023-05-22T10:48:47.236Z,2.97
2023-05-22T10:54:00.958Z,2.50
2023-05-22T10:59:05.358Z,3.20
2023-05-22T11:04:07.451Z,2.77
2023-05-22T11:09:24.358Z,2.73
2023-05-22T11:14:26.276Z,2.47
2023-05-22T11:19:28.217Z,2.30
2023-05-22T11:24:36.896Z,2.90
2023-05-22T11:29:44.364Z,2.77
2023-05-22T11:34:47.727Z,2.83
2023-05-22T11:39:57.862Z,2.43
2023-05-22T11:45:00.536Z,2.80
2023-05-22T11:50:03.036Z,3.00
2023-05-22T11:55:06.039Z,2.70
2023-05-22T12:00:09.007Z,2.37
2023-05-22T12:05:15.899Z,2.97
2023-05-22T12:10:17.984Z,2.60
2023-05-22T12:15:23.979Z,2.87
2023-05-22T12:20:34.749Z,3.93
2023-05-22T12:25:37.360Z,2.30
2023-05-22T12:30:41.773Z,2.70
2023-05-22T12:35:43.830Z,2.87
2023-05-22T12:40:45.782Z,2.50
2023-05-22T12:45:47.735Z,2.73
2023-05-22T12:50:49.728Z,2.57
2023-05-22T12:55:51.572Z,2.93
2023-05-22T13:00:53.574Z,2.93
2023-05-22T13:05:55.783Z,2.40
2023-05-22T13:10:57.867Z,2.67
2023-05-22T13:15:59.773Z,2.53
2023-05-22T13:21:01.706Z,2.40
2023-05-22T13:26:03.679Z,2.43
2023-05-22T13:31:05.723Z,1.97
2023-05-22T13:36:07.723Z,2.70
2023-05-22T13:41:09.833Z,2.80
2023-05-22T13:46:12.057Z,2.30
2023-05-22T13:51:14.358Z,2.10
2023-05-22T13:56:18.837Z,2.57
2023-05-22T14:01:21.330Z,2.30
2023-05-22T14:06:24.656Z,2.53
2023-05-22T14:11:27.967Z,2.83
2023-05-22T14:16:43.641Z,2.60
2023-05-22T14:21:54.298Z,2.77
2023-05-22T14:27:03.650Z,2.67
2023-05-22T14:32:13.575Z,2.50
2023-05-22T14:37:18.805Z,2.60
2023-05-22T14:42:22.990Z,2.77
2023-05-22T14:47:24.962Z,2.30
2023-05-22T14:52:27.148Z,2.20
2023-05-22T14:57:29.597Z,2.60
2023-05-22T15:02:31.764Z,2.40
2023-05-22T15:12:38.908Z,2.60
2023-05-22T15:17:42.916Z,2.90
2023-05-22T15:22:45.798Z,2.60
2023-05-22T15:27:47.943Z,2.53
2023-05-22T15:32:52.868Z,2.37
2023-05-22T15:37:55.088Z,2.23
2023-05-22T15:42:57.235Z,3.90
2023-05-22T15:47:59.855Z,3.23
2023-05-22T15:53:01.963Z,2.53
2023-05-22T15:58:07.808Z,5.37
2023-05-22T16:03:12.853Z,2.80
2023-05-22T16:08:17.850Z,2.63
2023-05-22T16:13:40.050Z,3.20
2023-05-22T16:18:42.295Z,2.80
2023-05-22T16:29:33.923Z,2.80
2023-05-22T16:34:46.813Z,3.13
2023-05-22T16:39:49.135Z,3.13
2023-05-22T16:45:04.545Z,2.50
2023-05-22T17:01:50.004Z,3.60
2023-05-22T17:07:21.866Z,2.90
2023-05-22T17:12:33.844Z,2.93
2023-05-22T17:23:57.813Z,2.70
2023-05-22T17:36:16.576Z,2.90
2023-05-22T17:43:13.365Z,3.40
2023-05-22T17:48:33.360Z,2.70
2023-05-22T17:54:08.058Z,2.80
2023-05-22T17:59:51.989Z,2.63
2023-05-22T18:04:58.524Z,4.00
2023-05-22T18:10:16.534Z,2.83
2023-05-22T18:16:23.122Z,2.70
2023-05-22T18:21:38.474Z,2.53
2023-05-22T18:27:45.305Z,2.10
2023-05-22T18:33:49.585Z,2.60
2023-05-22T18:39:09.427Z,3.03
2023-05-22T18:44:27.204Z,3.20
2023-05-22T18:56:03.225Z,3.33
2023-05-22T19:01:27.643Z,3.00
2023-05-22T19:13:35.597Z,2.50
2023-05-22T19:19:50.089Z,2.80
2023-05-22T19:25:33.466Z,2.90
2023-05-22T19:31:04.225Z,2.43
2023-05-22T19:36:25.388Z,2.83
2023-05-22T19:41:29.606Z,3.07
2023-05-22T19:46:31.821Z,2.63
2023-05-22T19:51:33.780Z,2.53
2023-05-22T19:56:35.842Z,3.33
2023-05-22T20:01:38.540Z,3.10
2023-05-22T20:06:42.117Z,2.90
2023-05-22T20:11:47.283Z,3.50
2023-05-22T20:16:49.341Z,3.40
2023-05-22T20:21:52.101Z,3.27
2023-05-22T20:26:53.980Z,2.93
2023-05-22T20:31:56.035Z,3.17
2023-05-22T20:36:58.467Z,2.80
2023-05-22T20:42:03.148Z,3.50
2023-05-22T20:47:05.876Z,2.90
2023-05-22T20:52:09.937Z,3.27
2023-05-22T20:57:11.916Z,3.47
2023-05-22T21:02:13.773Z,3.40
2023-05-22T21:07:15.764Z,3.77
2023-05-22T21:12:17.761Z,3.23
2023-05-22T21:17:19.721Z,3.20
2023-05-22T21:22:21.624Z,3.40
2023-05-22T21:27:23.666Z,3.77
2023-05-22T21:32:25.713Z,3.50
2023-05-22T21:37:27.687Z,3.67
2023-05-22T21:42:44.983Z,3.40
2023-05-22T21:47:48.740Z,3.80
2023-05-22T21:52:50.678Z,3.40
2023-05-22T21:57:52.568Z,3.23
2023-05-22T22:02:57.228Z,3.30
2023-05-22T22:07:59.428Z,3.73
2023-05-22T22:13:02.632Z,3.50
2023-05-22T22:18:05.128Z,4.00
2023-05-22T22:23:07.588Z,3.90
2023-05-22T22:28:09.717Z,3.63
2023-05-22T22:33:11.950Z,3.70
2023-05-22T22:38:13.912Z,3.77
2023-05-22T22:43:15.829Z,3.40
2023-05-22T22:48:22.360Z,3.60
2023-05-22T22:53:24.312Z,3.67
2023-05-22T22:58:26.408Z,4.30
2023-05-22T23:03:28.412Z,4.47
2023-05-22T23:08:30.520Z,3.50
2023-05-22T23:13:32.397Z,4.10
2023-05-22T23:18:34.263Z,3.87
2023-05-22T23:23:36.060Z,4.27
2023-05-22T23:28:37.967Z,4.60
2023-05-22T23:33:40.474Z,4.50
2023-05-22T23:38:42.352Z,3.90
2023-05-22T23:43:45.068Z,3.93
2023-05-22T23:48:47.392Z,4.50
2023-05-22T23:53:49.281Z,4.40
2023-05-22T23:58:51.239Z,4.80
